createdAt,value
2019-03-25T00:02:15.545Z,62.70
2019-03-25T00:04:48.487Z,63.32
2019-03-25T00:07:17.687Z,63.58
2019-03-25T00:09:46.840Z,63.64
2019-03-25T00:12:15.999Z,64.42
2019-03-25T00:14:45.185Z,63.78
2019-03-25T00:17:14.446Z,62.81
2019-03-25T00:19:43.614Z,63.20
2019-03-25T00:22:12.780Z,62.03
2019-03-25T00:24:41.944Z,61.18
2019-03-25T00:27:11.113Z,60.89
2019-03-25T00:29:40.302Z,62.94
2019-03-25T00:32:09.543Z,63.48
2019-03-25T00:34:38.925Z,63.73
2019-03-25T00:37:08.089Z,65.12
2019-03-25T00:39:37.286Z,65.71
2019-03-25T00:42:06.532Z,65.84
2019-03-25T00:44:36.211Z,66.34
2019-03-25T00:47:05.485Z,65.43
2019-03-25T00:49:34.617Z,66.24
2019-03-25T00:52:05.910Z,66.36
2019-03-25T00:54:35.067Z,66.91
2019-03-25T00:57:04.263Z,66.53
2019-03-25T00:59:33.407Z,65.80
2019-03-25T01:02:02.649Z,67.09
2019-03-25T01:04:31.896Z,67.09
2019-03-25T01:07:01.105Z,67.38
2019-03-25T01:09:30.284Z,67.33
2019-03-25T01:11:59.698Z,66.97
2019-03-25T01:14:28.863Z,66.82
2019-03-25T01:16:58.024Z,68.52
2019-03-25T01:19:27.242Z,67.78
2019-03-25T01:21:56.522Z,68.88
2019-03-25T01:24:27.005Z,68.86
2019-03-25T01:26:56.113Z,68.11
2019-03-25T01:29:25.337Z,69.37
2019-03-25T01:31:54.672Z,69.42
2019-03-25T01:34:23.829Z,70.48
2019-03-25T01:36:52.984Z,70.95
2019-03-25T01:39:22.165Z,70.16
2019-03-25T01:41:51.325Z,70.49
2019-03-25T01:44:20.501Z,70.26
2019-03-25T01:46:49.650Z,68.78
2019-03-25T01:49:18.837Z,69.67
2019-03-25T01:51:47.974Z,69.78
2019-03-25T01:54:17.153Z,69.80
2019-03-25T01:56:46.391Z,69.53
2019-03-25T01:59:15.556Z,71.00
2019-03-25T02:01:44.765Z,71.38
2019-03-25T02:04:13.964Z,72.22
2019-03-25T02:06:43.181Z,71.96
2019-03-25T02:09:12.350Z,71.78
2019-03-25T02:11:41.525Z,71.15
2019-03-25T02:14:10.698Z,70.22
2019-03-25T02:16:39.895Z,69.98
2019-03-25T02:19:09.060Z,71.18
2019-03-25T02:21:38.218Z,72.32
2019-03-25T02:24:07.375Z,73.49
2019-03-25T02:26:36.547Z,73.01
2019-03-25T02:29:05.697Z,74.44
2019-03-25T02:31:34.887Z,75.13
2019-03-25T02:34:05.379Z,74.37
2019-03-25T02:36:34.452Z,74.77
2019-03-25T02:39:05.241Z,74.30
2019-03-25T02:41:34.406Z,74.37
2019-03-25T02:44:03.584Z,75.31
2019-03-25T02:46:32.728Z,76.33
2019-03-25T02:49:01.936Z,76.59
2019-03-25T02:51:31.092Z,75.54
2019-03-25T02:54:00.263Z,75.44
2019-03-25T02:56:29.438Z,75.43
2019-03-25T02:58:58.604Z,76.31
2019-03-25T03:01:27.821Z,75.95
2019-03-25T03:03:56.980Z,76.13
2019-03-25T03:06:26.504Z,76.62
2019-03-25T03:08:55.701Z,77.10
2019-03-25T03:11:24.867Z,77.53
2019-03-25T03:13:54.028Z,78.01
2019-03-25T03:16:23.257Z,78.23
2019-03-25T03:18:52.396Z,78.47
2019-03-25T03:21:21.545Z,78.39
2019-03-25T03:23:50.712Z,78.12
2019-03-25T03:26:20.476Z,78.39
2019-03-25T03:28:49.656Z,78.30
2019-03-25T03:31:18.794Z,78.80
2019-03-25T03:33:47.967Z,80.20
2019-03-25T03:36:17.125Z,80.04
2019-03-25T03:38:46.309Z,79.55
2019-03-25T03:41:15.477Z,79.35
2019-03-25T03:43:44.674Z,79.38
2019-03-25T03:46:13.988Z,79.45
2019-03-25T03:48:43.140Z,79.89
2019-03-25T03:51:12.559Z,80.74
2019-03-25T03:53:41.818Z,80.47
2019-03-25T03:56:13.530Z,80.17
2019-03-25T03:58:43.548Z,80.09
2019-03-25T04:01:12.714Z,81.13
2019-03-25T04:03:41.910Z,82.05
2019-03-25T04:06:11.067Z,82.21
2019-03-25T04:08:40.343Z,81.77
2019-03-25T04:11:09.494Z,82.56
2019-03-25T04:13:38.711Z,81.80
2019-03-25T04:16:07.869Z,81.07
2019-03-25T04:18:38.099Z,81.71
2019-03-25T04:21:07.277Z,81.61
2019-03-25T04:23:36.438Z,81.33
2019-03-25T04:26:05.695Z,81.60
2019-03-25T04:28:35.298Z,81.90
2019-03-25T04:31:04.466Z,82.82
2019-03-25T04:33:33.619Z,83.98
2019-03-25T04:36:02.793Z,83.79
2019-03-25T04:38:32.183Z,83.54
2019-03-25T04:41:01.445Z,83.36
2019-03-25T04:43:30.586Z,83.86
2019-03-25T04:45:59.755Z,84.82
2019-03-25T04:48:28.937Z,84.38
2019-03-25T04:50:58.099Z,84.61
2019-03-25T04:53:27.261Z,84.19
2019-03-25T04:55:56.425Z,84.14
2019-03-25T04:58:25.593Z,84.79
2019-03-25T05:00:54.767Z,84.96
2019-03-25T05:03:23.963Z,84.79
2019-03-25T05:05:53.148Z,84.88
2019-03-25T05:08:22.340Z,84.73
2019-03-25T05:10:51.531Z,84.68
2019-03-25T05:13:20.693Z,84.72
2019-03-25T05:15:49.875Z,85.02
2019-03-25T05:18:19.084Z,85.17
2019-03-25T05:20:48.285Z,84.93
2019-03-25T05:23:17.512Z,85.60
2019-03-25T05:25:46.685Z,84.56
2019-03-25T05:28:15.834Z,84.55
2019-03-25T05:30:44.991Z,84.46
2019-03-25T05:33:14.296Z,83.73
2019-03-25T05:35:43.524Z,83.71
2019-03-25T05:38:12.698Z,83.39
2019-03-25T05:40:41.852Z,83.52
2019-03-25T05:43:10.996Z,83.57
2019-03-25T05:45:40.136Z,83.62
2019-03-25T05:48:09.346Z,83.35
2019-03-25T05:50:38.496Z,82.93
2019-03-25T05:53:07.669Z,82.41
2019-03-25T05:55:36.947Z,82.14
2019-03-25T05:58:06.143Z,83.48
2019-03-25T06:00:36.698Z,84.97
2019-03-25T06:03:06.000Z,85.71
2019-03-25T06:05:35.186Z,86.28
2019-03-25T06:08:04.444Z,87.14
2019-03-25T06:10:33.600Z,86.92
2019-03-25T06:13:02.789Z,87.01
2019-03-25T06:15:31.942Z,86.29
2019-03-25T06:18:01.103Z,86.34
2019-03-25T06:20:30.275Z,86.97
2019-03-25T06:22:59.460Z,86.44
2019-03-25T06:25:28.659Z,85.61
2019-03-25T06:27:58.064Z,86.27
2019-03-25T06:30:30.169Z,85.99
2019-03-25T06:32:59.561Z,86.27
2019-03-25T06:35:28.709Z,86.11
2019-03-25T06:37:57.899Z,86.87
2019-03-25T06:40:27.079Z,85.67
2019-03-25T06:42:56.261Z,86.34
2019-03-25T06:45:25.465Z,88.84
2019-03-25T06:47:54.679Z,90.18
2019-03-25T06:50:23.827Z,90.25
2019-03-25T06:52:53.701Z,89.90
2019-03-25T06:55:22.863Z,89.59
2019-03-25T06:57:52.112Z,88.94
2019-03-25T07:00:21.768Z,87.48
2019-03-25T07:02:50.944Z,87.03
2019-03-25T07:05:20.219Z,86.46
2019-03-25T07:07:49.416Z,85.65
2019-03-25T07:10:31.515Z,84.04
2019-03-25T07:13:01.265Z,83.89
2019-03-25T07:15:30.556Z,81.69
2019-03-25T07:17:59.796Z,81.11
2019-03-25T07:20:29.126Z,81.14
2019-03-25T07:22:58.437Z,80.95
2019-03-25T07:25:27.627Z,81.32
2019-03-25T07:27:56.905Z,81.91
2019-03-25T07:30:26.082Z,82.76
2019-03-25T07:32:55.240Z,83.88
2019-03-25T07:35:24.431Z,84.29
2019-03-25T07:37:53.568Z,85.33
2019-03-25T07:40:22.756Z,86.55
2019-03-25T07:42:52.016Z,87.23
2019-03-25T07:45:21.216Z,86.71
2019-03-25T07:47:50.385Z,86.02
2019-03-25T07:50:19.705Z,87.38
2019-03-25T07:52:48.854Z,86.80
2019-03-25T07:55:18.054Z,89.31
2019-03-25T07:57:48.616Z,88.41
2019-03-25T08:00:18.568Z,89.95
2019-03-25T08:02:47.771Z,91.01
2019-03-25T08:05:17.073Z,91.79
2019-03-25T08:07:49.837Z,91.46
2019-03-25T08:10:34.936Z,90.43
2019-03-25T08:13:04.338Z,90.44
2019-03-25T08:15:33.883Z,89.61
2019-03-25T08:18:03.190Z,88.60
2019-03-25T08:20:32.464Z,89.79
2019-03-25T08:23:01.621Z,90.68
2019-03-25T08:25:30.965Z,91.63
2019-03-25T08:28:00.688Z,90.74
2019-03-25T08:30:30.068Z,90.78
2019-03-25T08:32:59.390Z,89.66
2019-03-25T08:35:28.655Z,90.05
2019-03-25T08:37:57.885Z,89.34
2019-03-25T08:40:27.125Z,90.14
2019-03-25T08:42:56.277Z,86.48
2019-03-25T08:45:25.547Z,87.15
2019-03-25T08:47:54.748Z,85.37
2019-03-25T08:50:23.994Z,83.25
2019-03-25T08:52:53.332Z,84.49
2019-03-25T08:55:22.548Z,81.74
2019-03-25T08:57:51.834Z,81.04
2019-03-25T09:00:21.245Z,81.28
2019-03-25T09:02:50.419Z,80.37
2019-03-25T09:05:19.830Z,80.07
2019-03-25T09:07:49.033Z,78.88
2019-03-25T09:10:18.364Z,78.75
2019-03-25T09:12:47.553Z,77.23
2019-03-25T09:15:16.853Z,75.79
2019-03-25T09:17:46.250Z,74.31
2019-03-25T09:20:15.893Z,75.76
2019-03-25T09:22:45.465Z,73.86
2019-03-25T09:25:17.149Z,72.86
2019-03-25T09:27:46.346Z,70.85
2019-03-25T09:30:36.051Z,70.86
2019-03-25T09:33:05.367Z,68.42
2019-03-25T09:35:34.583Z,68.35
2019-03-25T09:38:03.904Z,69.55
2019-03-25T09:40:33.051Z,70.73
2019-03-25T09:43:02.277Z,70.47
2019-03-25T09:45:31.463Z,70.36
2019-03-25T09:48:00.711Z,70.37
2019-03-25T09:50:29.948Z,69.67
2019-03-25T09:52:59.170Z,67.10
2019-03-25T09:55:28.391Z,67.53
2019-03-25T09:57:57.582Z,63.53
2019-03-25T10:00:31.677Z,62.69
2019-03-25T10:03:01.047Z,62.66
2019-03-25T10:05:30.491Z,62.68
2019-03-25T10:07:59.660Z,60.17
2019-03-25T10:10:28.890Z,61.83
2019-03-25T10:12:58.440Z,60.51
2019-03-25T10:15:27.683Z,61.44
2019-03-25T10:17:56.953Z,63.51
2019-03-25T10:20:26.866Z,69.27
2019-03-25T10:22:56.307Z,68.37
2019-03-25T10:25:25.574Z,68.41
2019-03-25T10:27:54.834Z,69.31
2019-03-25T10:30:24.453Z,76.66
2019-03-25T10:32:53.705Z,81.57
2019-03-25T10:35:22.873Z,79.01
2019-03-25T10:37:52.124Z,80.09
2019-03-25T10:40:21.299Z,80.34
2019-03-25T10:42:51.105Z,79.31
2019-03-25T10:45:20.363Z,78.53
2019-03-25T10:47:49.532Z,80.85
2019-03-25T10:50:19.792Z,80.36
2019-03-25T10:52:49.001Z,77.84
2019-03-25T10:55:18.253Z,75.90
2019-03-25T10:57:47.447Z,76.84
2019-03-25T11:00:17.191Z,77.15
2019-03-25T11:02:46.435Z,77.43
2019-03-25T11:05:15.718Z,77.14
2019-03-25T11:07:44.935Z,76.70
2019-03-25T11:10:14.409Z,78.93
2019-03-25T11:12:43.603Z,77.81
2019-03-25T11:15:13.453Z,76.40
2019-03-25T11:17:42.703Z,75.61
2019-03-25T11:20:12.245Z,71.95
2019-03-25T11:22:41.394Z,72.70
2019-03-25T11:25:12.290Z,72.73
2019-03-25T11:27:41.467Z,71.80
2019-03-25T11:30:11.355Z,71.15
2019-03-25T11:32:40.694Z,72.08
2019-03-25T11:35:10.519Z,71.85
2019-03-25T11:37:39.765Z,71.14
2019-03-25T11:40:10.965Z,73.73
2019-03-25T11:42:40.198Z,73.73
2019-03-25T11:45:10.243Z,74.76
2019-03-25T11:47:39.505Z,77.13
2019-03-25T11:50:09.439Z,80.72
2019-03-25T11:52:38.683Z,81.31
2019-03-25T11:55:09.734Z,87.25
2019-03-25T11:58:08.057Z,90.38
2019-03-25T12:00:37.325Z,92.52
2019-03-25T12:03:06.565Z,91.54
2019-03-25T12:05:35.801Z,91.01
2019-03-25T12:08:05.302Z,89.80
2019-03-25T12:10:34.648Z,90.34
2019-03-25T12:13:03.874Z,88.65
2019-03-25T12:15:33.193Z,89.82
2019-03-25T12:18:02.373Z,87.56
2019-03-25T12:20:31.631Z,85.86
2019-03-25T12:23:09.830Z,83.58
2019-03-25T12:35:49.316Z,81.65
2019-03-25T12:38:18.630Z,79.00
2019-03-25T12:40:53.962Z,78.76
2019-03-25T12:43:24.131Z,78.77
2019-03-25T12:46:04.549Z,77.79
2019-03-25T12:48:38.025Z,75.99
2019-03-25T12:51:07.282Z,76.81
2019-03-25T12:53:36.540Z,74.15
2019-03-25T12:56:05.787Z,72.46
2019-03-25T12:58:35.034Z,70.81
2019-03-25T13:01:04.284Z,72.04
2019-03-25T13:03:33.458Z,70.07
2019-03-25T13:06:02.800Z,70.23
2019-03-25T13:08:33.471Z,67.97
2019-03-25T13:11:02.696Z,70.13
2019-03-25T13:13:31.864Z,66.52
2019-03-25T13:16:01.047Z,61.88
2019-03-25T13:18:32.820Z,63.59
2019-03-25T13:21:08.792Z,65.30
2019-03-25T13:23:37.986Z,65.27
2019-03-25T13:26:07.172Z,66.52
2019-03-25T13:28:36.335Z,69.93
2019-03-25T13:31:05.537Z,73.54
2019-03-25T13:33:34.718Z,77.24
2019-03-25T13:36:04.168Z,80.27
2019-03-25T13:38:33.346Z,78.60
2019-03-25T13:41:02.535Z,79.35
2019-03-25T13:43:31.720Z,78.76
2019-03-25T13:46:05.293Z,79.58
2019-03-25T13:48:31.902Z,80.07
2019-03-25T13:51:01.049Z,79.22
2019-03-25T13:53:30.214Z,78.25
2019-03-25T13:55:59.355Z,77.50
2019-03-25T13:58:28.933Z,76.80
2019-03-25T14:00:58.214Z,76.67
2019-03-25T14:03:27.400Z,77.12
2019-03-25T14:05:56.617Z,74.07
2019-03-25T14:08:25.821Z,73.35
2019-03-25T14:10:55.061Z,72.87
2019-03-25T14:13:24.244Z,68.32
2019-03-25T14:15:53.428Z,68.18
2019-03-25T14:18:22.691Z,70.49
2019-03-25T14:20:51.846Z,70.72
2019-03-25T14:23:21.017Z,73.33
2019-03-25T14:25:50.277Z,74.30
2019-03-25T14:28:19.459Z,73.93
2019-03-25T14:30:48.636Z,74.42
2019-03-25T14:33:17.784Z,76.11
2019-03-25T14:35:46.963Z,76.00
2019-03-25T14:38:16.158Z,75.95
2019-03-25T14:40:46.222Z,76.14
2019-03-25T14:43:15.372Z,76.57
2019-03-25T14:45:45.277Z,75.25
2019-03-25T14:48:14.517Z,75.36
2019-03-25T14:50:43.790Z,74.33
2019-03-25T14:53:12.956Z,74.16
2019-03-25T14:55:42.271Z,72.02
2019-03-25T14:58:11.407Z,70.30
2019-03-25T15:00:40.664Z,69.93
2019-03-25T15:03:09.809Z,68.20
2019-03-25T15:05:39.147Z,68.55
2019-03-25T15:08:08.306Z,67.45
2019-03-25T15:10:37.479Z,66.78
2019-03-25T15:13:06.739Z,66.50
2019-03-25T15:15:35.906Z,67.83
2019-03-25T15:18:15.001Z,66.82
2019-03-25T15:20:35.969Z,67.81
2019-03-25T15:23:05.201Z,67.20
2019-03-25T15:25:34.884Z,67.94
2019-03-25T15:28:04.099Z,67.43
2019-03-25T15:30:36.339Z,66.81
2019-03-25T15:33:04.319Z,66.89
2019-03-25T15:35:33.481Z,66.63
2019-03-25T15:38:02.647Z,65.30
2019-03-25T15:47:47.211Z,66.60
2019-03-25T15:54:00.413Z,67.38
2019-03-25T15:57:04.583Z,66.57
2019-03-25T15:59:43.663Z,68.60
2019-03-25T16:04:58.000Z,67.83
2019-03-25T16:14:29.451Z,66.59
2019-03-25T16:16:58.613Z,67.50
2019-03-25T16:20:31.415Z,67.39
2019-03-25T16:23:16.923Z,66.57
2019-03-25T16:25:47.801Z,65.21
2019-03-25T16:28:27.363Z,66.17
2019-03-25T16:31:08.651Z,66.03
2019-03-25T16:33:38.108Z,66.45
2019-03-25T16:44:40.415Z,70.84
2019-03-25T16:55:35.363Z,75.74
2019-03-25T17:09:35.202Z,75.22
2019-03-25T17:18:56.306Z,76.05
2019-03-25T17:21:58.004Z,77.61
2019-03-25T17:25:17.226Z,78.68
2019-03-25T17:28:31.363Z,80.00
2019-03-25T17:31:09.121Z,81.34
2019-03-25T17:33:50.067Z,81.77
2019-03-25T17:36:41.172Z,81.95
2019-03-25T17:39:36.825Z,83.80
2019-03-25T17:42:21.002Z,85.76
2019-03-25T17:51:22.160Z,87.52
2019-03-25T17:54:03.979Z,86.79
2019-03-25T18:01:17.855Z,90.55
2019-03-25T18:04:11.222Z,94.94
2019-03-25T18:06:56.222Z,92.86
2019-03-25T18:09:43.855Z,91.11
2019-03-25T18:12:58.571Z,90.30
2019-03-25T18:16:18.914Z,89.83
2019-03-25T18:22:39.263Z,89.71
2019-03-25T18:28:40.188Z,89.91
2019-03-25T18:31:43.723Z,90.81
2019-03-25T18:34:27.267Z,93.13
2019-03-25T18:37:33.053Z,93.23
2019-03-25T18:40:33.379Z,93.89
2019-03-25T18:43:28.252Z,94.70
2019-03-25T18:46:18.777Z,95.13
2019-03-25T18:49:43.183Z,95.16
2019-03-25T18:52:35.387Z,95.41
2019-03-25T18:55:24.053Z,96.79
2019-03-25T18:58:07.150Z,98.05
2019-03-25T19:00:47.365Z,99.47
2019-03-25T19:04:11.870Z,100.00
2019-03-25T19:06:54.499Z,100.00
2019-03-25T19:09:37.943Z,100.00
2019-03-25T19:12:15.815Z,100.00
2019-03-25T19:15:31.240Z,100.00
2019-03-25T19:18:22.648Z,100.00
2019-03-25T19:21:01.427Z,100.00
2019-03-25T19:23:59.674Z,100.00
2019-03-25T19:26:45.322Z,100.00
2019-03-25T19:29:29.119Z,100.00
2019-03-25T19:32:08.847Z,100.00
2019-03-25T19:35:14.740Z,100.00
2019-03-25T19:38:23.944Z,100.00
2019-03-25T19:44:46.241Z,98.64
2019-03-25T19:47:37.612Z,97.04
2019-03-25T19:50:41.383Z,94.65
2019-03-25T19:53:49.778Z,94.27
2019-03-25T19:56:42.739Z,94.16
2019-03-25T20:02:37.070Z,91.72
2019-03-25T20:05:37.513Z,89.52
2019-03-25T20:08:25.210Z,88.62
2019-03-25T20:18:52.239Z,87.62
2019-03-25T20:42:38.517Z,89.39
2019-03-25T20:48:54.481Z,90.21
2019-03-25T20:52:18.709Z,90.93
2019-03-25T20:59:36.009Z,91.96
2019-03-25T21:02:44.186Z,92.24
2019-03-25T21:05:33.984Z,92.81
2019-03-25T21:09:13.945Z,92.49
2019-03-25T21:15:30.734Z,93.41
2019-03-25T21:22:04.955Z,92.67
2019-03-25T21:25:08.097Z,92.13
2019-03-25T21:29:07.018Z,91.68
2019-03-25T21:39:29.110Z,93.27
2019-03-25T21:42:14.709Z,93.13
2019-03-25T21:44:40.802Z,93.50
2019-03-25T21:47:54.046Z,93.88
2019-03-25T21:51:05.884Z,94.07
2019-03-25T21:53:59.227Z,95.91
2019-03-25T21:57:06.297Z,95.94
2019-03-25T22:00:06.354Z,96.39
2019-03-25T22:07:49.237Z,97.14
2019-03-25T22:09:57.288Z,98.02
2019-03-25T22:16:46.853Z,98.48
2019-03-25T22:19:59.425Z,98.88
2019-03-25T22:29:29.769Z,95.16
2019-03-25T22:36:47.361Z,93.61
2019-03-25T22:38:48.915Z,93.65
2019-03-25T22:45:35.525Z,93.18
2019-03-25T22:48:22.792Z,93.08
2019-03-25T22:50:48.780Z,92.71
2019-03-25T22:53:40.459Z,92.29
2019-03-25T22:56:41.890Z,92.27
2019-03-25T23:00:43.838Z,92.33
2019-03-25T23:03:01.185Z,92.21
2019-03-25T23:05:31.874Z,92.06
2019-03-25T23:08:01.053Z,91.44
2019-03-25T23:11:02.307Z,91.56
2019-03-25T23:13:50.797Z,91.27
2019-03-25T23:16:26.225Z,90.76
2019-03-25T23:19:52.487Z,90.15
2019-03-25T23:22:57.945Z,90.77
2019-03-25T23:25:30.694Z,90.33
2019-03-25T23:28:02.505Z,90.64
2019-03-25T23:31:33.957Z,90.29
2019-03-25T23:34:45.438Z,89.91
2019-03-25T23:41:15.603Z,89.56
2019-03-25T23:48:05.404Z,90.01
2019-03-25T23:54:26.889Z,89.92
2019-03-25T23:57:46.186Z,90.80
